»·PEaware :: N318DA KSNA-KCRQ

N318DA :: KSNA-KCRQ

FLIGHT INFORMATION

Flight Status: Arrived
Operator: Privately registered:
United States
More flights under this callsign
Pilot: Roland T. (32460)
Aircraft: CIRRUS SR-22
(SR22)
More flights by this aircraft type
Origin: KSNA John Wayne-Orange Co
United States
Destination: KCRQ McClellan-Palomar
United States
More flights between these airports :: More routes between these airports
Route: V23 OCN
File this flight plan on PilotEdge
Remarks:
Altitude:
(Current/Filed)
5,000ft
Speed:
(Current/Filed)
160kts
Departed: 21-Nov-20 02:59 PM
Arrived: 21-Nov-20 03:32 PM
Distance/Time
Traveled:
6774nm/0:32
Distance/Time
To Go:
Arrived

Flight Plot

Page will automatically refresh every two minutes.


Map Options




Map Legend


Flown Route
Filed Route
Departure Airport
Arrival Airport
Navaid (VOR, NDB)
Fix

Horizontal Profiles

Position Reports

Time Latitude Longitude Heading Altitude Ground
Speed
21-Nov-20 14:27 33.676158 -117.870972 183 52ft 0kts
21-Nov-20 14:28 33.676158 -117.870972 183 52ft 0kts
21-Nov-20 14:29 33.676158 -117.870972 183 52ft 0kts
21-Nov-20 14:30 33.676158 -117.870972 183 52ft 0kts
21-Nov-20 14:31 33.676158 -117.870972 183 52ft 0kts
21-Nov-20 14:32 33.676158 -117.870972 183 52ft 0kts
21-Nov-20 14:33 33.676158 -117.870972 183 52ft 0kts
21-Nov-20 14:34 33.676158 -117.870972 183 52ft 0kts
21-Nov-20 14:35 33.676158 -117.870972 183 52ft 0kts
21-Nov-20 14:36 33.676158 -117.870972 183 52ft 0kts
21-Nov-20 14:37 33.676158 -117.870972 183 52ft 0kts
21-Nov-20 14:38 33.676158 -117.870972 183 52ft 0kts
21-Nov-20 14:39 33.676158 -117.870972 183 52ft 0kts
21-Nov-20 14:40 33.676158 -117.870972 183 52ft 0kts
21-Nov-20 14:41 33.676158 -117.870972 183 52ft 0kts
21-Nov-20 14:42 33.676158 -117.870972 183 52ft 0kts
21-Nov-20 14:43 33.676158 -117.870972 183 52ft 0kts
21-Nov-20 14:44 33.676158 -117.870972 183 52ft 0kts
21-Nov-20 14:45 33.676158 -117.870972 183 52ft 0kts
21-Nov-20 14:46 33.676158 -117.870972 183 52ft 0kts
21-Nov-20 14:47 33.676158 -117.870972 183 52ft 0kts
21-Nov-20 14:48 33.676158 -117.870972 183 52ft 0kts
21-Nov-20 14:49 33.676158 -117.870972 183 52ft 0kts
21-Nov-20 14:50 33.676158 -117.870972 183 52ft 0kts
21-Nov-20 14:51 33.676158 -117.870972 183 52ft 0kts
21-Nov-20 14:52 33.675984 -117.870168 32 54ft 6kts
21-Nov-20 14:53 33.680086 -117.867768 28 45ft 24kts
21-Nov-20 14:54 33.681207 -117.866443 128 43ft 0kts
21-Nov-20 14:55 33.681207 -117.866443 128 43ft 0kts
21-Nov-20 14:56 33.681207 -117.866443 128 43ft 0kts
21-Nov-20 14:57 33.681193 -117.866420 126 43ft 4kts
21-Nov-20 14:58 33.670166 -117.872318 207 226ft 86kts
21-Nov-20 14:59 33.643713 -117.876995 186 1060ft 117kts
21-Nov-20 15:00 33.610847 -117.881209 187 2395ft 117kts
21-Nov-20 15:01 33.577855 -117.885525 187 3641ft 120kts
21-Nov-20 15:02 33.544271 -117.889631 185 4806ft 122kts
21-Nov-20 15:03 33.503386 -117.893210 185 4994ft 168kts
21-Nov-20 15:04 33.483226 -117.851598 99 4996ft 178kts
21-Nov-20 15:05 33.472898 -117.793436 102 4996ft 178kts
21-Nov-20 15:06 33.462216 -117.735569 102 4995ft 172kts
21-Nov-20 15:07 33.452913 -117.681157 99 4995ft 164kts
21-Nov-20 15:08 33.428437 -117.636890 138 4994ft 163kts
21-Nov-20 15:09 33.396019 -117.598862 136 4997ft 163kts
21-Nov-20 15:10 33.363537 -117.560934 136 4994ft 163kts
21-Nov-20 15:11 33.331003 -117.522974 136 4995ft 165kts
21-Nov-20 15:12 33.297956 -117.483900 136 4995ft 167kts
21-Nov-20 15:13 33.267185 -117.448217 135 4994ft 148kts
21-Nov-20 15:14 33.239261 -117.412905 105 5003ft 145kts
21-Nov-20 15:15 33.240591 -117.364325 84 4994ft 147kts
21-Nov-20 15:16 33.244269 -117.311844 84 4995ft 166kts
21-Nov-20 15:17 33.248036 -117.255737 84 4996ft 171kts
21-Nov-20 15:18 33.251812 -117.198551 85 4994ft 172kts
21-Nov-20 15:19 33.255406 -117.141422 85 4995ft 172kts
21-Nov-20 15:20 33.258849 -117.086008 84 4994ft 159kts
21-Nov-20 15:21 33.259273 -117.034160 119 4989ft 157kts
21-Nov-20 15:22 33.219886 -117.016089 168 4481ft 151kts
21-Nov-20 15:23 33.179723 -117.006146 168 4006ft 132kts
21-Nov-20 15:24 33.165110 -117.029349 275 3927ft 120kts
21-Nov-20 15:25 33.162000 -117.069890 259 3782ft 123kts
21-Nov-20 15:26 33.154909 -117.114465 259 3067ft 146kts
21-Nov-20 15:27 33.148413 -117.158409 262 2856ft 126kts
21-Nov-20 15:28 33.146487 -117.203031 262 1540ft 120kts
21-Nov-20 15:29 33.134302 -117.242268 257 846ft 132kts
21-Nov-20 15:30 33.129594 -117.271992 258 336ft 79kts
21-Nov-20 15:31 33.127859 -117.279570 223 331ft 3kts
21-Nov-20 15:32 33.127585 -117.279610 149 331ft 0kts
21-Nov-20 15:33 33.127585 -117.279610 149 331ft 0kts
21-Nov-20 15:34 33.126605 -117.278809 134 329ft 6kts
21-Nov-20 15:35 33.126288 -117.278808 173 328ft 0kts
21-Nov-20 15:36 33.126288 -117.278808 173 328ft 0kts
21-Nov-20 15:37 0.000408 0.013975 0 3ft 0kts

Navigation Log

Ident Type
Flight plan parsing failed, navigation log unavailable